sensor_id;sensor_type;location;lat;lon;timestamp;P1;durP1;ratioP1;P2;durP2;ratioP2
363;SDS011;173;48.718;9.274;2022-08-19T00:01:55;15.10;;;13.70;;
363;SDS011;173;48.718;9.274;2022-08-19T00:04:29;14.87;;;13.57;;
363;SDS011;173;48.718;9.274;2022-08-19T00:07:04;15.40;;;14.10;;
363;SDS011;173;48.718;9.274;2022-08-19T00:09:36;16.85;;;15.15;;
363;SDS011;173;48.718;9.274;2022-08-19T00:12:12;16.25;;;14.85;;
363;SDS011;173;48.718;9.274;2022-08-19T00:22:15;17.07;;;15.57;;
363;SDS011;173;48.718;9.274;2022-08-19T00:24:47;16.77;;;14.80;;
363;SDS011;173;48.718;9.274;2022-08-19T00:27:19;18.23;;;16.43;;
363;SDS011;173;48.718;9.274;2022-08-19T00:29:51;16.53;;;15.03;;
363;SDS011;173;48.718;9.274;2022-08-19T00:32:24;16.70;;;15.30;;
363;SDS011;173;48.718;9.274;2022-08-19T00:34:59;17.85;;;16.15;;
363;SDS011;173;48.718;9.274;2022-08-19T00:37:31;16.77;;;15.27;;
363;SDS011;173;48.718;9.274;2022-08-19T00:40:08;16.47;;;14.87;;
363;SDS011;173;48.718;9.274;2022-08-19T00:42:41;16.70;;;15.20;;
363;SDS011;173;48.718;9.274;2022-08-19T00:45:16;15.83;;;14.40;;
363;SDS011;173;48.718;9.274;2022-08-19T00:47:49;17.15;;;15.35;;
363;SDS011;173;48.718;9.274;2022-08-19T00:50:24;17.03;;;15.53;;
363;SDS011;173;48.718;9.274;2022-08-19T00:52:56;17.87;;;16.07;;
363;SDS011;173;48.718;9.274;2022-08-19T00:55:29;16.20;;;14.70;;
363;SDS011;173;48.718;9.274;2022-08-19T00:58:04;17.67;;;15.97;;
363;SDS011;173;48.718;9.274;2022-08-19T01:00:38;17.45;;;15.75;;
363;SDS011;173;48.718;9.274;2022-08-19T01:03:12;18.13;;;16.43;;
363;SDS011;173;48.718;9.274;2022-08-19T01:05:49;17.37;;;15.63;;
363;SDS011;173;48.718;9.274;2022-08-19T01:08:22;18.40;;;16.63;;
363;SDS011;173;48.718;9.274;2022-08-19T01:10:56;17.25;;;15.50;;
363;SDS011;173;48.718;9.274;2022-08-19T01:13:32;17.07;;;15.47;;
363;SDS011;173;48.718;9.274;2022-08-19T01:16:07;18.00;;;16.30;;
363;SDS011;173;48.718;9.274;2022-08-19T01:18:41;18.17;;;16.27;;
363;SDS011;173;48.718;9.274;2022-08-19T01:21:32;17.50;;;15.80;;
363;SDS011;173;48.718;9.274;2022-08-19T01:24:07;17.03;;;15.33;;
363;SDS011;173;48.718;9.274;2022-08-19T01:26:43;16.83;;;15.10;;
363;SDS011;173;48.718;9.274;2022-08-19T01:29:16;17.10;;;15.50;;
363;SDS011;173;48.718;9.274;2022-08-19T01:31:48;16.40;;;14.70;;
363;SDS011;173;48.718;9.274;2022-08-19T01:34:21;17.60;;;15.80;;
363;SDS011;173;48.718;9.274;2022-08-19T01:36:55;18.90;;;16.30;;
363;SDS011;173;48.718;9.274;2022-08-19T01:39:27;15.97;;;14.57;;
363;SDS011;173;48.718;9.274;2022-08-19T01:42:00;17.37;;;15.30;;
363;SDS011;173;48.718;9.274;2022-08-19T01:44:33;15.77;;;14.27;;
363;SDS011;173;48.718;9.274;2022-08-19T01:47:07;16.10;;;14.60;;
363;SDS011;173;48.718;9.274;2022-08-19T01:49:39;17.40;;;15.00;;
363;SDS011;173;48.718;9.274;2022-08-19T01:54:43;17.03;;;15.33;;
363;SDS011;173;48.718;9.274;2022-08-19T01:59:45;16.55;;;14.80;;
363;SDS011;173;48.718;9.274;2022-08-19T02:02:18;16.90;;;15.30;;
363;SDS011;173;48.718;9.274;2022-08-19T02:04:50;16.87;;;15.27;;
363;SDS011;173;48.718;9.274;2022-08-19T02:07:24;17.10;;;15.40;;
363;SDS011;173;48.718;9.274;2022-08-19T02:09:58;16.63;;;15.13;;
363;SDS011;173;48.718;9.274;2022-08-19T02:12:35;16.63;;;15.03;;
363;SDS011;173;48.718;9.274;2022-08-19T02:15:09;15.60;;;14.10;;
363;SDS011;173;48.718;9.274;2022-08-19T02:17:42;16.97;;;15.40;;
363;SDS011;173;48.718;9.274;2022-08-19T02:20:14;16.35;;;14.85;;
363;SDS011;173;48.718;9.274;2022-08-19T02:22:48;15.30;;;13.73;;
363;SDS011;173;48.718;9.274;2022-08-19T02:25:20;16.95;;;15.15;;
363;SDS011;173;48.718;9.274;2022-08-19T02:27:52;17.10;;;15.50;;
363;SDS011;173;48.718;9.274;2022-08-19T02:30:24;18.85;;;16.90;;
363;SDS011;173;48.718;9.274;2022-08-19T02:32:56;17.00;;;15.30;;
363;SDS011;173;48.718;9.274;2022-08-19T02:35:28;18.10;;;16.30;;
363;SDS011;173;48.718;9.274;2022-08-19T02:38:03;18.47;;;16.70;;
363;SDS011;173;48.718;9.274;2022-08-19T02:40:58;17.50;;;15.80;;
363;SDS011;173;48.718;9.274;2022-08-19T02:43:35;18.47;;;16.60;;
363;SDS011;173;48.718;9.274;2022-08-19T02:46:15;19.00;;;17.00;;
363;SDS011;173;48.718;9.274;2022-08-19T02:48:51;18.30;;;16.50;;
363;SDS011;173;48.718;9.274;2022-08-19T02:51:27;19.83;;;17.07;;
363;SDS011;173;48.718;9.274;2022-08-19T02:56:38;18.93;;;17.13;;
363;SDS011;173;48.718;9.274;2022-08-19T02:59:12;18.40;;;16.50;;
363;SDS011;173;48.718;9.274;2022-08-19T03:04:15;18.50;;;16.70;;
363;SDS011;173;48.718;9.274;2022-08-19T03:09:19;21.17;;;19.07;;
363;SDS011;173;48.718;9.274;2022-08-19T03:11:52;21.00;;;18.30;;
363;SDS011;173;48.718;9.274;2022-08-19T03:16:57;20.33;;;18.33;;
363;SDS011;173;48.718;9.274;2022-08-19T03:19:30;18.70;;;16.80;;
363;SDS011;173;48.718;9.274;2022-08-19T03:22:04;21.70;;;18.65;;
363;SDS011;173;48.718;9.274;2022-08-19T03:24:36;21.47;;;19.27;;
363;SDS011;173;48.718;9.274;2022-08-19T03:27:09;20.63;;;18.53;;
363;SDS011;173;48.718;9.274;2022-08-19T03:29:43;20.50;;;18.53;;
363;SDS011;173;48.718;9.274;2022-08-19T03:32:15;20.30;;;18.30;;
363;SDS011;173;48.718;9.274;2022-08-19T03:34:48;22.97;;;20.60;;
363;SDS011;173;48.718;9.274;2022-08-19T03:37:20;26.20;;;23.50;;
363;SDS011;173;48.718;9.274;2022-08-19T03:39:52;22.90;;;20.50;;
363;SDS011;173;48.718;9.274;2022-08-19T03:42:24;23.53;;;21.03;;
363;SDS011;173;48.718;9.274;2022-08-19T03:44:56;23.05;;;19.60;;
363;SDS011;173;48.718;9.274;2022-08-19T03:47:28;24.65;;;21.75;;
363;SDS011;173;48.718;9.274;2022-08-19T03:50:00;22.23;;;19.93;;
363;SDS011;173;48.718;9.274;2022-08-19T03:52:32;24.20;;;21.43;;
363;SDS011;173;48.718;9.274;2022-08-19T03:55:47;24.47;;;20.77;;
363;SDS011;173;48.718;9.274;2022-08-19T03:58:20;24.20;;;21.70;;
363;SDS011;173;48.718;9.274;2022-08-19T04:00:55;24.23;;;21.77;;
363;SDS011;173;48.718;9.274;2022-08-19T04:03:27;23.60;;;21.10;;
363;SDS011;173;48.718;9.274;2022-08-19T04:06:08;23.63;;;21.33;;
363;SDS011;173;48.718;9.274;2022-08-19T04:08:47;22.77;;;20.13;;
363;SDS011;173;48.718;9.274;2022-08-19T04:11:22;23.07;;;20.80;;
363;SDS011;173;48.718;9.274;2022-08-19T04:13:57;23.37;;;20.90;;
363;SDS011;173;48.718;9.274;2022-08-19T04:16:30;23.30;;;20.80;;
363;SDS011;173;48.718;9.274;2022-08-19T04:19:03;25.25;;;22.75;;
363;SDS011;173;48.718;9.274;2022-08-19T04:21:35;24.23;;;21.67;;
363;SDS011;173;48.718;9.274;2022-08-19T04:24:09;22.10;;;19.90;;
363;SDS011;173;48.718;9.274;2022-08-19T04:26:42;24.60;;;22.03;;
363;SDS011;173;48.718;9.274;2022-08-19T04:29:16;22.40;;;20.20;;
363;SDS011;173;48.718;9.274;2022-08-19T04:31:53;25.60;;;23.10;;
363;SDS011;173;48.718;9.274;2022-08-19T04:34:31;23.55;;;21.00;;
363;SDS011;173;48.718;9.274;2022-08-19T04:37:04;23.90;;;21.20;;
363;SDS011;173;48.718;9.274;2022-08-19T04:39:37;29.00;;;23.50;;
363;SDS011;173;48.718;9.274;2022-08-19T04:42:27;24.90;;;22.30;;
363;SDS011;173;48.718;9.274;2022-08-19T04:45:06;26.05;;;22.90;;
363;SDS011;173;48.718;9.274;2022-08-19T04:47:42;25.45;;;22.10;;
363;SDS011;173;48.718;9.274;2022-08-19T04:50:14;26.00;;;23.25;;
363;SDS011;173;48.718;9.274;2022-08-19T04:52:49;24.47;;;21.70;;
363;SDS011;173;48.718;9.274;2022-08-19T04:55:22;26.37;;;23.63;;
363;SDS011;173;48.718;9.274;2022-08-19T04:57:56;25.17;;;22.53;;
363;SDS011;173;48.718;9.274;2022-08-19T05:00:28;25.00;;;22.40;;
363;SDS011;173;48.718;9.274;2022-08-19T05:03:00;24.13;;;21.57;;
363;SDS011;173;48.718;9.274;2022-08-19T05:05:32;26.65;;;23.55;;
363;SDS011;173;48.718;9.274;2022-08-19T05:08:07;25.10;;;22.50;;
363;SDS011;173;48.718;9.274;2022-08-19T05:10:41;25.27;;;22.63;;
363;SDS011;173;48.718;9.274;2022-08-19T05:13:16;26.03;;;23.23;;
363;SDS011;173;48.718;9.274;2022-08-19T05:15:55;25.07;;;22.47;;
363;SDS011;173;48.718;9.274;2022-08-19T05:18:29;26.57;;;22.70;;
363;SDS011;173;48.718;9.274;2022-08-19T05:21:19;27.53;;;24.43;;
363;SDS011;173;48.718;9.274;2022-08-19T05:24:10;27.20;;;24.57;;
363;SDS011;173;48.718;9.274;2022-08-19T05:26:45;24.00;;;21.50;;
363;SDS011;173;48.718;9.274;2022-08-19T05:29:21;22.75;;;20.35;;
363;SDS011;173;48.718;9.274;2022-08-19T05:31:55;27.00;;;24.40;;
363;SDS011;173;48.718;9.274;2022-08-19T05:37:10;26.00;;;23.40;;
363;SDS011;173;48.718;9.274;2022-08-19T05:39:42;25.23;;;22.50;;
363;SDS011;173;48.718;9.274;2022-08-19T05:42:15;26.07;;;22.83;;
363;SDS011;173;48.718;9.274;2022-08-19T05:44:48;25.80;;;23.00;;
363;SDS011;173;48.718;9.274;2022-08-19T05:49:52;25.60;;;22.90;;
363;SDS011;173;48.718;9.274;2022-08-19T05:52:24;25.17;;;22.67;;
363;SDS011;173;48.718;9.274;2022-08-19T05:54:56;26.15;;;23.55;;
363;SDS011;173;48.718;9.274;2022-08-19T05:57:28;24.53;;;22.20;;
363;SDS011;173;48.718;9.274;2022-08-19T06:00:00;23.90;;;21.43;;
363;SDS011;173;48.718;9.274;2022-08-19T06:02:36;25.45;;;22.70;;
363;SDS011;173;48.718;9.274;2022-08-19T06:05:09;23.90;;;21.33;;
363;SDS011;173;48.718;9.274;2022-08-19T06:07:41;25.20;;;22.80;;
363;SDS011;173;48.718;9.274;2022-08-19T06:10:13;25.10;;;22.60;;
363;SDS011;173;48.718;9.274;2022-08-19T06:12:47;25.30;;;22.75;;
363;SDS011;173;48.718;9.274;2022-08-19T06:15:19;25.90;;;23.40;;
363;SDS011;173;48.718;9.274;2022-08-19T06:17:53;24.27;;;21.97;;
363;SDS011;173;48.718;9.274;2022-08-19T06:20:26;25.37;;;22.87;;
363;SDS011;173;48.718;9.274;2022-08-19T06:22:58;25.17;;;21.87;;
363;SDS011;173;48.718;9.274;2022-08-19T06:25:30;23.40;;;20.20;;
363;SDS011;173;48.718;9.274;2022-08-19T06:28:06;26.73;;;24.03;;
363;SDS011;173;48.718;9.274;2022-08-19T06:30:40;26.15;;;23.40;;
363;SDS011;173;48.718;9.274;2022-08-19T06:33:12;26.83;;;23.93;;
363;SDS011;173;48.718;9.274;2022-08-19T06:35:44;24.93;;;22.30;;
363;SDS011;173;48.718;9.274;2022-08-19T06:38:16;25.10;;;22.50;;
363;SDS011;173;48.718;9.274;2022-08-19T06:40:49;27.50;;;24.80;;
363;SDS011;173;48.718;9.274;2022-08-19T06:43:30;25.57;;;22.93;;
363;SDS011;173;48.718;9.274;2022-08-19T06:46:03;27.10;;;24.30;;
363;SDS011;173;48.718;9.274;2022-08-19T06:48:40;26.20;;;23.43;;
363;SDS011;173;48.718;9.274;2022-08-19T06:53:53;28.15;;;24.50;;
363;SDS011;173;48.718;9.274;2022-08-19T06:56:22;27.47;;;24.33;;
363;SDS011;173;48.718;9.274;2022-08-19T06:59:07;26.67;;;24.17;;
363;SDS011;173;48.718;9.274;2022-08-19T07:01:42;27.27;;;24.47;;
363;SDS011;173;48.718;9.274;2022-08-19T07:04:15;27.20;;;24.30;;
363;SDS011;173;48.718;9.274;2022-08-19T07:07:00;27.60;;;24.90;;
363;SDS011;173;48.718;9.274;2022-08-19T07:09:39;25.23;;;22.50;;
363;SDS011;173;48.718;9.274;2022-08-19T07:12:13;25.60;;;23.00;;
363;SDS011;173;48.718;9.274;2022-08-19T07:14:45;26.40;;;23.67;;
363;SDS011;173;48.718;9.274;2022-08-19T07:17:18;25.90;;;23.20;;
363;SDS011;173;48.718;9.274;2022-08-19T07:19:50;28.27;;;25.37;;
363;SDS011;173;48.718;9.274;2022-08-19T07:22:23;30.90;;;24.87;;
363;SDS011;173;48.718;9.274;2022-08-19T07:24:55;30.05;;;26.65;;
363;SDS011;173;48.718;9.274;2022-08-19T07:27:29;29.55;;;26.45;;
363;SDS011;173;48.718;9.274;2022-08-19T07:32:34;29.55;;;26.45;;
363;SDS011;173;48.718;9.274;2022-08-19T07:35:08;30.30;;;27.10;;
363;SDS011;173;48.718;9.274;2022-08-19T07:37:40;31.33;;;27.93;;
363;SDS011;173;48.718;9.274;2022-08-19T07:40:13;29.43;;;26.20;;
363;SDS011;173;48.718;9.274;2022-08-19T07:42:45;30.40;;;27.20;;
363;SDS011;173;48.718;9.274;2022-08-19T07:45:18;29.57;;;26.37;;
363;SDS011;173;48.718;9.274;2022-08-19T07:47:50;32.53;;;28.93;;
363;SDS011;173;48.718;9.274;2022-08-19T07:50:22;32.50;;;29.10;;
363;SDS011;173;48.718;9.274;2022-08-19T07:52:55;32.63;;;27.90;;
363;SDS011;173;48.718;9.274;2022-08-19T07:55:26;31.40;;;28.00;;
363;SDS011;173;48.718;9.274;2022-08-19T07:58:00;32.60;;;29.10;;
363;SDS011;173;48.718;9.274;2022-08-19T08:03:02;33.20;;;29.80;;
363;SDS011;173;48.718;9.274;2022-08-19T08:05:34;32.00;;;27.60;;
363;SDS011;173;48.718;9.274;2022-08-19T08:08:24;31.67;;;28.27;;
363;SDS011;173;48.718;9.274;2022-08-19T08:11:12;32.40;;;27.80;;
363;SDS011;173;48.718;9.274;2022-08-19T08:13:46;29.97;;;26.97;;
363;SDS011;173;48.718;9.274;2022-08-19T08:16:18;36.00;;;28.13;;
363;SDS011;173;48.718;9.274;2022-08-19T08:18:52;31.10;;;27.90;;
363;SDS011;173;48.718;9.274;2022-08-19T08:24:26;29.83;;;26.73;;
363;SDS011;173;48.718;9.274;2022-08-19T08:27:01;32.15;;;28.65;;
363;SDS011;173;48.718;9.274;2022-08-19T08:33:04;32.25;;;26.90;;
363;SDS011;173;48.718;9.274;2022-08-19T08:35:36;30.80;;;27.50;;
363;SDS011;173;48.718;9.274;2022-08-19T08:43:33;26.20;;;21.20;;
363;SDS011;173;48.718;9.274;2022-08-19T08:46:15;27.80;;;22.17;;
363;SDS011;173;48.718;9.274;2022-08-19T08:48:54;29.15;;;23.00;;
363;SDS011;173;48.718;9.274;2022-08-19T08:54:50;29.00;;;22.80;;
363;SDS011;173;48.718;9.274;2022-08-19T08:57:30;25.70;;;20.70;;
363;SDS011;173;48.718;9.274;2022-08-19T09:00:07;26.65;;;21.20;;
363;SDS011;173;48.718;9.274;2022-08-19T09:02:46;26.30;;;22.05;;
363;SDS011;173;48.718;9.274;2022-08-19T09:05:21;24.75;;;21.85;;
363;SDS011;173;48.718;9.274;2022-08-19T09:08:12;26.50;;;21.50;;
363;SDS011;173;48.718;9.274;2022-08-19T09:10:55;30.50;;;23.60;;
363;SDS011;173;48.718;9.274;2022-08-19T09:13:31;26.15;;;23.30;;
363;SDS011;173;48.718;9.274;2022-08-19T09:18:58;23.30;;;20.20;;
363;SDS011;173;48.718;9.274;2022-08-19T09:21:36;26.55;;;22.00;;
363;SDS011;173;48.718;9.274;2022-08-19T09:24:08;26.00;;;22.50;;
363;SDS011;173;48.718;9.274;2022-08-19T09:26:40;24.53;;;21.73;;
363;SDS011;173;48.718;9.274;2022-08-19T09:29:12;24.70;;;22.00;;
363;SDS011;173;48.718;9.274;2022-08-19T09:31:46;23.90;;;20.30;;
363;SDS011;173;48.718;9.274;2022-08-19T09:34:20;22.50;;;18.60;;
363;SDS011;173;48.718;9.274;2022-08-19T09:36:50;26.97;;;22.50;;
363;SDS011;173;48.718;9.274;2022-08-19T09:39:24;24.37;;;20.20;;
363;SDS011;173;48.718;9.274;2022-08-19T09:41:56;24.63;;;22.03;;
363;SDS011;173;48.718;9.274;2022-08-19T09:44:29;25.80;;;22.70;;
363;SDS011;173;48.718;9.274;2022-08-19T09:47:01;23.50;;;21.00;;
363;SDS011;173;48.718;9.274;2022-08-19T09:49:33;25.15;;;20.95;;
363;SDS011;173;48.718;9.274;2022-08-19T09:54:38;22.90;;;20.00;;
363;SDS011;173;48.718;9.274;2022-08-19T09:57:10;24.70;;;22.10;;
363;SDS011;173;48.718;9.274;2022-08-19T09:59:42;21.60;;;19.30;;
363;SDS011;173;48.718;9.274;2022-08-19T10:02:14;24.50;;;21.00;;
363;SDS011;173;48.718;9.274;2022-08-19T10:04:46;22.67;;;20.00;;
363;SDS011;173;48.718;9.274;2022-08-19T10:07:36;23.50;;;21.05;;
363;SDS011;173;48.718;9.274;2022-08-19T10:12:45;21.37;;;19.07;;
363;SDS011;173;48.718;9.274;2022-08-19T10:15:17;25.40;;;21.10;;
363;SDS011;173;48.718;9.274;2022-08-19T10:17:49;27.53;;;22.50;;
363;SDS011;173;48.718;9.274;2022-08-19T10:20:21;22.70;;;20.30;;
363;SDS011;173;48.718;9.274;2022-08-19T10:22:55;23.67;;;20.40;;
363;SDS011;173;48.718;9.274;2022-08-19T10:25:31;21.20;;;18.90;;
363;SDS011;173;48.718;9.274;2022-08-19T10:33:06;27.00;;;20.30;;
363;SDS011;173;48.718;9.274;2022-08-19T10:35:39;26.75;;;22.75;;
363;SDS011;173;48.718;9.274;2022-08-19T10:38:12;24.27;;;21.63;;
363;SDS011;173;48.718;9.274;2022-08-19T10:41:55;25.47;;;22.43;;
363;SDS011;173;48.718;9.274;2022-08-19T10:46:58;24.30;;;21.80;;
363;SDS011;173;48.718;9.274;2022-08-19T10:49:31;23.50;;;20.50;;
363;SDS011;173;48.718;9.274;2022-08-19T10:52:05;24.67;;;22.20;;
363;SDS011;173;48.718;9.274;2022-08-19T10:54:55;27.50;;;22.37;;
363;SDS011;173;48.718;9.274;2022-08-19T10:57:46;25.60;;;22.30;;
363;SDS011;173;48.718;9.274;2022-08-19T11:00:19;23.17;;;20.17;;
363;SDS011;173;48.718;9.274;2022-08-19T11:02:52;21.70;;;19.35;;
363;SDS011;173;48.718;9.274;2022-08-19T11:05:24;22.55;;;20.00;;
363;SDS011;173;48.718;9.274;2022-08-19T14:49:45;32.10;;;26.37;;
363;SDS011;173;48.718;9.274;2022-08-19T14:52:17;36.00;;;28.40;;
363;SDS011;173;48.718;9.274;2022-08-19T14:57:20;35.45;;;29.80;;
363;SDS011;173;48.718;9.274;2022-08-19T14:59:52;33.70;;;28.70;;
363;SDS011;173;48.718;9.274;2022-08-19T15:02:24;32.50;;;28.95;;
363;SDS011;173;48.718;9.274;2022-08-19T15:04:56;35.50;;;28.65;;
363;SDS011;173;48.718;9.274;2022-08-19T15:07:28;31.80;;;26.00;;
363;SDS011;173;48.718;9.274;2022-08-19T15:10:00;31.23;;;25.67;;
363;SDS011;173;48.718;9.274;2022-08-19T15:12:34;29.55;;;26.35;;
363;SDS011;173;48.718;9.274;2022-08-19T15:15:09;28.60;;;24.40;;
363;SDS011;173;48.718;9.274;2022-08-19T15:17:45;28.63;;;24.63;;
363;SDS011;173;48.718;9.274;2022-08-19T15:20:19;27.90;;;24.60;;
363;SDS011;173;48.718;9.274;2022-08-19T15:22:51;31.33;;;26.77;;
363;SDS011;173;48.718;9.274;2022-08-19T15:25:24;26.87;;;24.00;;
363;SDS011;173;48.718;9.274;2022-08-19T15:27:58;27.80;;;24.60;;
363;SDS011;173;48.718;9.274;2022-08-19T15:33:01;24.60;;;22.05;;
363;SDS011;173;48.718;9.274;2022-08-19T15:35:33;24.57;;;22.00;;
363;SDS011;173;48.718;9.274;2022-08-19T15:38:06;23.87;;;21.50;;
363;SDS011;173;48.718;9.274;2022-08-19T15:40:42;22.27;;;19.97;;
363;SDS011;173;48.718;9.274;2022-08-19T15:43:15;21.45;;;19.35;;
363;SDS011;173;48.718;9.274;2022-08-19T15:45:48;22.40;;;20.20;;
363;SDS011;173;48.718;9.274;2022-08-19T15:48:20;23.90;;;21.70;;
363;SDS011;173;48.718;9.274;2022-08-19T15:50:52;22.10;;;20.10;;
363;SDS011;173;48.718;9.274;2022-08-19T15:53:24;21.00;;;18.80;;
363;SDS011;173;48.718;9.274;2022-08-19T15:55:56;21.13;;;19.07;;
363;SDS011;173;48.718;9.274;2022-08-19T15:58:30;21.40;;;18.95;;
363;SDS011;173;48.718;9.274;2022-08-19T16:01:20;21.10;;;18.80;;
363;SDS011;173;48.718;9.274;2022-08-19T16:04:10;20.30;;;18.20;;
363;SDS011;173;48.718;9.274;2022-08-19T16:07:01;19.50;;;17.63;;
363;SDS011;173;48.718;9.274;2022-08-19T16:12:05;20.10;;;18.27;;
363;SDS011;173;48.718;9.274;2022-08-19T16:14:37;21.20;;;19.20;;
363;SDS011;173;48.718;9.274;2022-08-19T16:17:09;19.90;;;17.90;;
363;SDS011;173;48.718;9.274;2022-08-19T16:19:41;21.20;;;19.10;;
363;SDS011;173;48.718;9.274;2022-08-19T16:22:13;19.50;;;17.60;;
363;SDS011;173;48.718;9.274;2022-08-19T16:24:47;21.17;;;19.07;;
363;SDS011;173;48.718;9.274;2022-08-19T16:27:19;21.53;;;18.80;;
363;SDS011;173;48.718;9.274;2022-08-19T16:29:51;20.50;;;18.30;;
363;SDS011;173;48.718;9.274;2022-08-19T16:34:54;21.37;;;19.37;;
363;SDS011;173;48.718;9.274;2022-08-19T16:39:58;23.00;;;20.80;;
363;SDS011;173;48.718;9.274;2022-08-19T16:42:33;23.20;;;20.70;;
363;SDS011;173;48.718;9.274;2022-08-19T16:45:05;23.85;;;21.45;;
363;SDS011;173;48.718;9.274;2022-08-19T16:47:38;22.60;;;20.20;;
363;SDS011;173;48.718;9.274;2022-08-19T16:50:10;21.60;;;19.37;;
363;SDS011;173;48.718;9.274;2022-08-19T16:52:42;20.50;;;17.80;;
363;SDS011;173;48.718;9.274;2022-08-19T16:55:14;23.30;;;19.90;;
363;SDS011;173;48.718;9.274;2022-08-19T17:00:17;22.73;;;20.43;;
363;SDS011;173;48.718;9.274;2022-08-19T17:02:49;21.80;;;19.50;;
363;SDS011;173;48.718;9.274;2022-08-19T17:05:21;23.35;;;20.40;;
363;SDS011;173;48.718;9.274;2022-08-19T17:07:54;24.30;;;21.90;;
363;SDS011;173;48.718;9.274;2022-08-19T17:10:26;23.00;;;20.60;;
363;SDS011;173;48.718;9.274;2022-08-19T17:12:58;23.13;;;20.77;;
363;SDS011;173;48.718;9.274;2022-08-19T17:18:01;23.70;;;21.33;;
363;SDS011;173;48.718;9.274;2022-08-19T17:20:35;20.47;;;18.37;;
363;SDS011;173;48.718;9.274;2022-08-19T17:25:39;24.70;;;20.20;;
363;SDS011;173;48.718;9.274;2022-08-19T17:28:19;23.00;;;20.70;;
363;SDS011;173;48.718;9.274;2022-08-19T17:30:55;22.97;;;20.20;;
363;SDS011;173;48.718;9.274;2022-08-19T17:33:28;22.40;;;20.00;;
363;SDS011;173;48.718;9.274;2022-08-19T17:41:00;22.30;;;19.73;;
363;SDS011;173;48.718;9.274;2022-08-19T17:43:33;25.10;;;21.00;;
363;SDS011;173;48.718;9.274;2022-08-19T17:46:06;20.77;;;18.57;;
363;SDS011;173;48.718;9.274;2022-08-19T17:51:17;21.45;;;19.15;;
363;SDS011;173;48.718;9.274;2022-08-19T17:54:01;22.67;;;20.17;;
363;SDS011;173;48.718;9.274;2022-08-19T17:59:06;25.10;;;21.10;;
363;SDS011;173;48.718;9.274;2022-08-19T18:01:44;21.90;;;19.70;;
363;SDS011;173;48.718;9.274;2022-08-19T18:04:17;21.83;;;19.50;;
363;SDS011;173;48.718;9.274;2022-08-19T18:06:51;23.83;;;21.43;;
363;SDS011;173;48.718;9.274;2022-08-19T18:09:26;23.30;;;21.00;;
363;SDS011;173;48.718;9.274;2022-08-19T18:12:06;21.80;;;18.40;;
363;SDS011;173;48.718;9.274;2022-08-19T18:14:41;21.87;;;19.67;;
363;SDS011;173;48.718;9.274;2022-08-19T18:17:14;23.60;;;20.00;;
363;SDS011;173;48.718;9.274;2022-08-19T18:19:48;20.90;;;18.80;;
363;SDS011;173;48.718;9.274;2022-08-19T18:22:23;21.63;;;19.40;;
363;SDS011;173;48.718;9.274;2022-08-19T18:25:04;21.53;;;19.33;;
363;SDS011;173;48.718;9.274;2022-08-19T18:27:39;21.10;;;19.00;;
363;SDS011;173;48.718;9.274;2022-08-19T18:30:12;22.87;;;20.57;;
363;SDS011;173;48.718;9.274;2022-08-19T18:32:45;20.90;;;18.70;;
363;SDS011;173;48.718;9.274;2022-08-19T18:35:28;21.00;;;18.73;;
363;SDS011;173;48.718;9.274;2022-08-19T18:38:03;24.30;;;21.10;;
363;SDS011;173;48.718;9.274;2022-08-19T18:40:37;22.00;;;19.10;;
363;SDS011;173;48.718;9.274;2022-08-19T18:43:27;19.70;;;17.70;;
363;SDS011;173;48.718;9.274;2022-08-19T18:46:17;22.80;;;20.40;;
363;SDS011;173;48.718;9.274;2022-08-19T18:49:07;24.20;;;20.50;;
363;SDS011;173;48.718;9.274;2022-08-19T18:54:17;21.67;;;19.23;;
363;SDS011;173;48.718;9.274;2022-08-19T18:56:51;22.60;;;20.20;;
363;SDS011;173;48.718;9.274;2022-08-19T18:59:25;21.95;;;18.95;;
363;SDS011;173;48.718;9.274;2022-08-19T19:01:58;21.47;;;19.27;;
363;SDS011;173;48.718;9.274;2022-08-19T19:04:31;24.70;;;22.10;;
363;SDS011;173;48.718;9.274;2022-08-19T19:07:05;25.80;;;23.10;;
363;SDS011;173;48.718;9.274;2022-08-19T19:09:39;23.00;;;20.60;;
363;SDS011;173;48.718;9.274;2022-08-19T19:12:14;25.60;;;20.83;;
363;SDS011;173;48.718;9.274;2022-08-19T19:14:48;24.30;;;21.90;;
363;SDS011;173;48.718;9.274;2022-08-19T19:17:20;23.50;;;21.20;;
363;SDS011;173;48.718;9.274;2022-08-19T19:19:53;24.05;;;21.25;;
363;SDS011;173;48.718;9.274;2022-08-19T19:24:55;22.23;;;20.03;;
363;SDS011;173;48.718;9.274;2022-08-19T19:27:27;26.10;;;23.43;;
363;SDS011;173;48.718;9.274;2022-08-19T19:32:29;25.13;;;22.73;;
363;SDS011;173;48.718;9.274;2022-08-19T19:35:04;23.30;;;20.77;;
363;SDS011;173;48.718;9.274;2022-08-19T19:37:37;24.50;;;21.93;;
363;SDS011;173;48.718;9.274;2022-08-19T19:40:10;25.13;;;22.40;;
363;SDS011;173;48.718;9.274;2022-08-19T19:42:42;24.10;;;21.60;;
363;SDS011;173;48.718;9.274;2022-08-19T19:45:15;22.70;;;20.20;;
363;SDS011;173;48.718;9.274;2022-08-19T19:47:48;25.17;;;22.57;;
363;SDS011;173;48.718;9.274;2022-08-19T19:50:23;27.17;;;23.37;;
363;SDS011;173;48.718;9.274;2022-08-19T19:52:56;23.30;;;20.90;;
363;SDS011;173;48.718;9.274;2022-08-19T19:55:28;26.00;;;23.40;;
363;SDS011;173;48.718;9.274;2022-08-19T19:58:01;26.00;;;23.40;;
363;SDS011;173;48.718;9.274;2022-08-19T20:00:34;27.80;;;22.53;;
363;SDS011;173;48.718;9.274;2022-08-19T20:03:06;29.27;;;25.17;;
363;SDS011;173;48.718;9.274;2022-08-19T20:05:38;26.20;;;23.50;;
363;SDS011;173;48.718;9.274;2022-08-19T20:08:10;26.37;;;23.60;;
363;SDS011;173;48.718;9.274;2022-08-19T20:11:01;24.07;;;21.67;;
363;SDS011;173;48.718;9.274;2022-08-19T20:13:35;25.95;;;22.10;;
363;SDS011;173;48.718;9.274;2022-08-19T20:16:07;28.30;;;24.90;;
363;SDS011;173;48.718;9.274;2022-08-19T20:18:39;30.03;;;25.20;;
363;SDS011;173;48.718;9.274;2022-08-19T20:21:12;30.90;;;27.57;;
363;SDS011;173;48.718;9.274;2022-08-19T20:26:15;32.00;;;27.70;;
363;SDS011;173;48.718;9.274;2022-08-19T20:28:48;31.60;;;28.20;;
363;SDS011;173;48.718;9.274;2022-08-19T20:31:20;30.40;;;27.30;;
363;SDS011;173;48.718;9.274;2022-08-19T20:36:23;28.60;;;25.80;;
363;SDS011;173;48.718;9.274;2022-08-19T20:38:56;31.97;;;28.50;;
363;SDS011;173;48.718;9.274;2022-08-19T20:41:30;30.40;;;27.10;;
363;SDS011;173;48.718;9.274;2022-08-19T20:44:03;37.90;;;33.50;;
363;SDS011;173;48.718;9.274;2022-08-19T20:46:37;29.63;;;26.60;;
363;SDS011;173;48.718;9.274;2022-08-19T20:49:08;28.23;;;25.40;;
363;SDS011;173;48.718;9.274;2022-08-19T20:51:41;27.90;;;25.00;;
363;SDS011;173;48.718;9.274;2022-08-19T20:54:13;30.57;;;26.93;;
363;SDS011;173;48.718;9.274;2022-08-19T20:56:46;35.07;;;31.37;;
363;SDS011;173;48.718;9.274;2022-08-19T20:59:18;34.80;;;30.65;;
363;SDS011;173;48.718;9.274;2022-08-19T21:01:52;29.40;;;25.87;;
363;SDS011;173;48.718;9.274;2022-08-19T21:04:25;26.10;;;23.30;;
363;SDS011;173;48.718;9.274;2022-08-19T21:06:58;25.50;;;23.10;;
363;SDS011;173;48.718;9.274;2022-08-19T21:09:31;24.03;;;21.50;;
363;SDS011;173;48.718;9.274;2022-08-19T21:12:04;21.80;;;19.80;;
363;SDS011;173;48.718;9.274;2022-08-19T21:14:45;19.40;;;17.60;;
363;SDS011;173;48.718;9.274;2022-08-19T21:22:17;19.50;;;17.70;;
363;SDS011;173;48.718;9.274;2022-08-19T21:24:49;22.20;;;20.00;;
363;SDS011;173;48.718;9.274;2022-08-19T21:27:21;19.40;;;17.30;;
363;SDS011;173;48.718;9.274;2022-08-19T21:29:53;20.30;;;18.30;;
363;SDS011;173;48.718;9.274;2022-08-19T21:32:25;21.70;;;19.60;;
363;SDS011;173;48.718;9.274;2022-08-19T21:34:57;22.40;;;20.20;;
363;SDS011;173;48.718;9.274;2022-08-19T21:37:29;22.23;;;19.93;;